createdAt,value
2023-03-22T00:00:07.409Z,529.00
2023-03-22T00:00:57.707Z,531.00
2023-03-22T00:01:47.779Z,526.00
2023-03-22T00:02:37.846Z,524.00
2023-03-22T00:03:27.922Z,523.00
2023-03-22T00:04:17.942Z,536.00
2023-03-22T00:05:07.976Z,522.00
2023-03-22T00:05:58.039Z,518.00
2023-03-22T00:06:48.085Z,529.00
2023-03-22T00:07:38.104Z,522.00
2023-03-22T00:08:28.181Z,530.00
2023-03-22T00:09:18.245Z,528.00
2023-03-22T00:10:08.349Z,520.00
2023-03-22T00:10:58.381Z,523.00
2023-03-22T00:11:48.436Z,522.00
2023-03-22T00:12:38.465Z,526.00
2023-03-22T00:13:28.535Z,526.00
2023-03-22T00:14:18.599Z,526.00
2023-03-22T00:15:08.689Z,523.00
2023-03-22T00:15:58.766Z,518.00
2023-03-22T00:16:49.002Z,523.00
2023-03-22T00:17:39.019Z,520.00
2023-03-22T00:18:29.117Z,523.00
2023-03-22T00:19:19.132Z,525.00
2023-03-22T00:20:09.227Z,524.00
2023-03-22T00:20:59.249Z,522.00
2023-03-22T00:21:49.333Z,528.00
2023-03-22T00:22:39.349Z,526.00
2023-03-22T00:23:29.420Z,523.00
2023-03-22T00:24:19.492Z,519.00
2023-03-22T00:25:09.593Z,522.00
2023-03-22T00:25:59.831Z,516.00
2023-03-22T00:26:49.921Z,512.00
2023-03-22T00:27:39.947Z,522.00
2023-03-22T00:28:30.272Z,521.00
2023-03-22T00:29:20.298Z,518.00
2023-03-22T00:30:10.409Z,520.00
2023-03-22T00:31:00.527Z,520.00
2023-03-22T00:31:50.494Z,521.00
2023-03-22T00:32:40.560Z,519.00
2023-03-22T00:33:30.644Z,523.00
2023-03-22T00:34:20.702Z,527.00
2023-03-22T00:35:10.764Z,519.00
2023-03-22T00:36:00.797Z,523.00
2023-03-22T00:36:50.867Z,522.00
2023-03-22T00:37:41.188Z,521.00
2023-03-22T00:38:41.700Z,523.00
2023-03-22T00:39:22.324Z,518.00
2023-03-22T00:40:11.418Z,516.00
2023-03-22T00:41:01.432Z,522.00
2023-03-22T00:41:51.498Z,513.00
2023-03-22T00:42:41.553Z,517.00
2023-03-22T00:43:31.617Z,521.00
2023-03-22T00:44:21.699Z,510.00
2023-03-22T00:45:11.879Z,516.00
2023-03-22T00:46:01.998Z,524.00
2023-03-22T00:46:51.965Z,515.00
2023-03-22T00:47:42.028Z,517.00
2023-03-22T00:48:32.030Z,520.00
2023-03-22T00:49:22.100Z,519.00
2023-03-22T00:50:12.217Z,518.00
2023-03-22T00:51:02.206Z,516.00
2023-03-22T00:51:52.282Z,518.00
2023-03-22T00:52:42.344Z,521.00
2023-03-22T00:53:32.418Z,521.00
2023-03-22T00:54:22.656Z,522.00
2023-03-22T00:55:12.759Z,516.00
2023-03-22T00:56:02.791Z,518.00
2023-03-22T00:56:52.846Z,519.00
2023-03-22T00:57:42.900Z,519.00
2023-03-22T00:58:32.966Z,519.00
2023-03-22T00:59:23.032Z,516.00
2023-03-22T01:00:13.122Z,516.00
2023-03-22T01:01:03.179Z,519.00
2023-03-22T01:01:53.223Z,527.00
2023-03-22T01:02:43.273Z,527.00
2023-03-22T01:03:33.611Z,519.00
2023-03-22T01:04:23.567Z,517.00
2023-03-22T01:05:13.654Z,513.00
2023-03-22T01:06:03.701Z,519.00
2023-03-22T01:06:53.758Z,522.00
2023-03-22T01:07:43.820Z,521.00
2023-03-22T01:08:33.908Z,523.00
2023-03-22T01:09:23.962Z,518.00
2023-03-22T01:10:14.077Z,521.00
2023-03-22T01:11:04.084Z,518.00
2023-03-22T01:11:54.160Z,516.00
2023-03-22T01:12:44.306Z,518.00
2023-03-22T01:13:34.382Z,519.00
2023-03-22T01:14:24.454Z,518.00
2023-03-22T01:15:14.770Z,519.00
2023-03-22T01:16:04.837Z,517.00
2023-03-22T01:16:54.919Z,517.00
2023-03-22T01:17:44.908Z,525.00
2023-03-22T01:18:35.000Z,512.00
2023-03-22T01:19:25.017Z,516.00
2023-03-22T01:20:15.082Z,527.00
2023-03-22T01:21:05.152Z,520.00
2023-03-22T01:21:55.165Z,525.00
2023-03-22T01:22:45.189Z,526.00
2023-03-22T01:23:35.261Z,521.00
2023-03-22T01:24:25.544Z,517.00
2023-03-22T01:25:15.640Z,518.00
2023-03-22T01:26:05.676Z,518.00
2023-03-22T01:26:55.716Z,523.00
2023-03-22T01:27:45.738Z,524.00
2023-03-22T01:28:35.807Z,519.00
2023-03-22T01:29:25.871Z,520.00
2023-03-22T01:30:15.966Z,517.00
2023-03-22T01:31:06.041Z,513.00
2023-03-22T01:31:56.113Z,528.00
2023-03-22T01:32:46.103Z,516.00
2023-03-22T01:33:36.434Z,524.00
2023-03-22T01:34:26.458Z,524.00
2023-03-22T01:35:16.553Z,517.00
2023-03-22T01:36:06.591Z,525.00
2023-03-22T01:36:56.669Z,522.00
2023-03-22T01:37:46.680Z,519.00
2023-03-22T01:38:36.768Z,519.00
2023-03-22T01:39:26.766Z,516.00
2023-03-22T01:40:16.856Z,524.00
2023-03-22T01:41:06.875Z,517.00
2023-03-22T01:41:56.958Z,517.00
2023-03-22T01:42:47.320Z,522.00
2023-03-22T01:43:37.353Z,518.00
2023-03-22T01:44:27.429Z,521.00
2023-03-22T01:45:17.726Z,517.00
2023-03-22T01:46:07.798Z,518.00
2023-03-22T01:46:57.836Z,517.00
2023-03-22T01:47:47.858Z,515.00
2023-03-22T01:48:38.051Z,517.00
2023-03-22T01:49:27.967Z,514.00
2023-03-22T01:50:18.063Z,512.00
2023-03-22T01:51:08.085Z,516.00
2023-03-22T01:51:58.163Z,523.00
2023-03-22T01:52:48.258Z,520.00
2023-03-22T01:53:38.305Z,515.00
2023-03-22T01:54:28.545Z,515.00
2023-03-22T01:55:18.657Z,519.00
2023-03-22T01:56:08.656Z,518.00
2023-03-22T01:56:58.734Z,523.00
2023-03-22T01:57:48.754Z,522.00
2023-03-22T01:58:38.828Z,520.00
2023-03-22T01:59:28.907Z,522.00
2023-03-22T02:00:19.104Z,522.00
2023-03-22T02:01:09.066Z,520.00
2023-03-22T02:01:59.116Z,526.00
2023-03-22T02:02:49.238Z,521.00
2023-03-22T02:03:39.399Z,515.00
2023-03-22T02:04:29.467Z,523.00
2023-03-22T02:05:19.553Z,523.00
2023-03-22T02:06:09.843Z,526.00
2023-03-22T02:06:59.912Z,522.00
2023-03-22T02:07:49.983Z,521.00
2023-03-22T02:08:40.332Z,522.00
2023-03-22T02:09:30.378Z,525.00
2023-03-22T02:10:20.468Z,521.00
2023-03-22T02:11:10.491Z,519.00
2023-03-22T02:12:00.585Z,524.00
2023-03-22T02:12:50.925Z,523.00
2023-03-22T02:13:40.704Z,520.00
2023-03-22T02:14:30.731Z,517.00
2023-03-22T02:15:20.801Z,520.00
2023-03-22T02:16:10.926Z,526.00
2023-03-22T02:17:00.896Z,527.00
2023-03-22T02:17:51.276Z,520.00
2023-03-22T02:18:41.291Z,523.00
2023-03-22T02:19:31.314Z,515.00
2023-03-22T02:20:21.422Z,516.00
2023-03-22T02:21:11.438Z,511.00
2023-03-22T02:22:01.536Z,518.00
2023-03-22T02:22:51.545Z,518.00
2023-03-22T02:23:41.617Z,516.00
2023-03-22T02:24:31.726Z,520.00
2023-03-22T02:25:21.779Z,511.00
2023-03-22T02:26:11.847Z,518.00
2023-03-22T02:27:02.072Z,513.00
2023-03-22T02:27:52.119Z,521.00
2023-03-22T02:28:42.165Z,518.00
2023-03-22T02:29:32.220Z,518.00
2023-03-22T02:30:22.308Z,508.00
2023-03-22T02:31:12.407Z,516.00
2023-03-22T02:32:02.375Z,511.00
2023-03-22T02:32:52.431Z,514.00
2023-03-22T02:33:42.499Z,517.00
2023-03-22T02:34:32.561Z,517.00
2023-03-22T02:35:22.688Z,517.00
2023-03-22T02:36:12.873Z,518.00
2023-03-22T02:37:02.942Z,513.00
2023-03-22T02:37:53.018Z,522.00
2023-03-22T02:38:43.316Z,515.00
2023-03-22T02:39:33.382Z,515.00
2023-03-22T02:40:23.459Z,513.00
2023-03-22T02:41:13.458Z,516.00
2023-03-22T02:42:03.527Z,512.00
2023-03-22T02:42:53.594Z,512.00
2023-03-22T02:43:43.649Z,513.00
2023-03-22T02:44:33.705Z,513.00
2023-03-22T02:45:23.778Z,506.00
2023-03-22T02:46:13.839Z,515.00
2023-03-22T02:47:03.866Z,515.00
2023-03-22T02:47:53.945Z,517.00
2023-03-22T02:48:43.966Z,508.00
2023-03-22T02:49:34.296Z,506.00
2023-03-22T02:50:24.393Z,511.00
2023-03-22T02:51:14.416Z,508.00
2023-03-22T02:52:04.752Z,511.00
2023-03-22T02:52:54.834Z,510.00
2023-03-22T02:53:44.912Z,512.00
2023-03-22T02:54:35.191Z,506.00
2023-03-22T02:55:25.297Z,517.00
2023-03-22T02:56:15.353Z,511.00
2023-03-22T02:57:05.654Z,512.00
2023-03-22T02:57:55.716Z,515.00
2023-03-22T02:58:45.844Z,510.00
2023-03-22T02:59:36.103Z,507.00
2023-03-22T03:00:26.212Z,506.00
2023-03-22T03:01:16.302Z,514.00
2023-03-22T03:02:06.368Z,507.00
2023-03-22T03:02:56.384Z,511.00
2023-03-22T03:03:46.436Z,508.00
2023-03-22T03:04:36.504Z,512.00
2023-03-22T03:05:26.588Z,514.00
2023-03-22T03:06:16.628Z,510.00
2023-03-22T03:07:06.706Z,514.00
2023-03-22T03:07:56.739Z,511.00
2023-03-22T03:08:47.016Z,515.00
2023-03-22T03:09:37.100Z,505.00
2023-03-22T03:10:27.139Z,502.00
2023-03-22T03:11:17.168Z,508.00
2023-03-22T03:12:07.273Z,504.00
2023-03-22T03:12:57.269Z,517.00
2023-03-22T03:13:47.336Z,511.00
2023-03-22T03:14:37.406Z,514.00
2023-03-22T03:15:27.494Z,508.00
2023-03-22T03:16:17.708Z,506.00
2023-03-22T03:17:07.573Z,505.00
2023-03-22T03:17:57.840Z,507.00
2023-03-22T03:18:47.915Z,506.00
2023-03-22T03:19:37.942Z,513.00
2023-03-22T03:20:28.307Z,512.00
2023-03-22T03:21:18.308Z,511.00
2023-03-22T03:22:08.372Z,514.00
2023-03-22T03:22:58.433Z,517.00
2023-03-22T03:23:48.502Z,512.00
2023-03-22T03:24:39.380Z,516.00
2023-03-22T03:25:28.622Z,516.00
2023-03-22T03:26:18.654Z,516.00
2023-03-22T03:27:08.757Z,510.00
2023-03-22T03:27:58.750Z,517.00
2023-03-22T03:28:48.832Z,519.00
2023-03-22T03:29:38.872Z,516.00
2023-03-22T03:30:28.971Z,512.00
2023-03-22T03:31:19.038Z,515.00
2023-03-22T03:32:09.078Z,513.00
2023-03-22T03:32:59.109Z,520.00
2023-03-22T03:33:49.183Z,511.00
2023-03-22T03:34:39.217Z,513.00
2023-03-22T03:35:29.325Z,515.00
2023-03-22T03:36:19.549Z,512.00
2023-03-22T03:37:09.640Z,510.00
2023-03-22T03:37:59.657Z,521.00
2023-03-22T03:38:49.732Z,513.00
2023-03-22T03:39:39.765Z,514.00
2023-03-22T03:40:29.835Z,515.00
2023-03-22T03:41:19.852Z,515.00
2023-03-22T03:42:09.931Z,510.00
2023-03-22T03:42:59.996Z,515.00
2023-03-22T03:43:50.041Z,520.00
2023-03-22T03:44:40.069Z,511.00
2023-03-22T03:45:30.471Z,515.00
2023-03-22T03:46:20.457Z,512.00
2023-03-22T03:47:10.531Z,516.00
2023-03-22T03:48:00.690Z,504.00
2023-03-22T03:48:50.680Z,516.00
2023-03-22T03:49:40.707Z,516.00
2023-03-22T03:50:30.794Z,515.00
2023-03-22T03:51:20.880Z,510.00
2023-03-22T03:52:10.907Z,507.00
2023-03-22T03:53:00.957Z,518.00
2023-03-22T03:53:51.035Z,504.00
2023-03-22T03:54:41.095Z,513.00
2023-03-22T03:55:31.129Z,515.00
2023-03-22T03:56:21.143Z,511.00
2023-03-22T03:57:11.220Z,511.00
2023-03-22T03:58:01.234Z,511.00
2023-03-22T03:58:51.331Z,518.00
2023-03-22T03:59:41.339Z,515.00
2023-03-22T04:00:31.453Z,513.00
2023-03-22T04:01:21.489Z,507.00
2023-03-22T04:02:11.541Z,507.00
2023-03-22T04:03:01.572Z,516.00
2023-03-22T04:03:51.656Z,511.00
2023-03-22T04:04:41.810Z,512.00
2023-03-22T04:05:31.765Z,512.00
2023-03-22T04:06:21.794Z,513.00
2023-03-22T04:07:11.875Z,511.00
2023-03-22T04:08:02.204Z,504.00
2023-03-22T04:08:52.282Z,506.00
2023-03-22T04:09:42.309Z,513.00
2023-03-22T04:10:32.415Z,504.00
2023-03-22T04:11:22.437Z,510.00
2023-03-22T04:12:12.514Z,511.00
2023-03-22T04:13:02.544Z,511.00
2023-03-22T04:13:52.624Z,507.00
2023-03-22T04:14:42.683Z,512.00
2023-03-22T04:15:32.755Z,520.00
2023-03-22T04:16:22.804Z,523.00
2023-03-22T04:17:13.124Z,531.00
2023-03-22T04:18:03.190Z,552.00
2023-03-22T04:18:53.265Z,554.00
2023-03-22T04:19:43.560Z,565.00
2023-03-22T04:20:33.674Z,565.00
2023-03-22T04:21:23.682Z,566.00
2023-03-22T04:22:13.993Z,559.00
2023-03-22T04:23:04.066Z,557.00
2023-03-22T04:23:54.145Z,551.00
2023-03-22T04:24:44.432Z,553.00
2023-03-22T04:25:34.493Z,548.00
2023-03-22T04:26:26.583Z,544.00
2023-03-22T04:27:14.578Z,544.00
2023-03-22T04:28:04.610Z,553.00
2023-03-22T04:28:54.687Z,548.00
2023-03-22T04:29:44.783Z,549.00
2023-03-22T04:30:34.957Z,531.00
2023-03-22T04:31:25.141Z,541.00
2023-03-22T04:32:15.131Z,543.00
2023-03-22T04:33:05.154Z,547.00
2023-03-22T04:33:55.239Z,538.00
2023-03-22T04:34:45.272Z,548.00
2023-03-22T04:35:35.449Z,546.00
2023-03-22T04:36:25.386Z,540.00
2023-03-22T04:37:15.467Z,543.00
2023-03-22T04:38:05.537Z,543.00
2023-03-22T04:38:55.616Z,539.00
2023-03-22T04:39:45.649Z,544.00
2023-03-22T04:40:35.701Z,538.00
2023-03-22T04:41:25.730Z,542.00
2023-03-22T04:42:15.775Z,547.00
2023-03-22T04:43:05.812Z,544.00
2023-03-22T04:43:55.849Z,537.00
2023-03-22T04:44:45.917Z,543.00
2023-03-22T04:45:36.037Z,548.00
2023-03-22T04:46:26.062Z,544.00
2023-03-22T04:47:16.111Z,543.00
2023-03-22T04:48:06.206Z,538.00
2023-03-22T04:48:56.204Z,542.00
2023-03-22T04:49:46.233Z,536.00
2023-03-22T04:50:36.324Z,546.00
2023-03-22T04:51:26.399Z,536.00
2023-03-22T04:52:16.482Z,540.00
2023-03-22T04:53:06.508Z,541.00
2023-03-22T04:53:56.582Z,535.00
2023-03-22T04:54:46.657Z,545.00
2023-03-22T04:55:36.781Z,544.00
2023-03-22T04:56:26.824Z,551.00
2023-03-22T04:57:16.828Z,551.00
2023-03-22T04:58:06.874Z,542.00
2023-03-22T04:58:56.951Z,540.00
2023-03-22T04:59:46.983Z,547.00
2023-03-22T05:00:37.537Z,539.00
2023-03-22T05:01:27.386Z,539.00
2023-03-22T05:02:17.381Z,548.00
2023-03-22T05:03:07.561Z,544.00
2023-03-22T05:03:57.449Z,545.00
2023-03-22T05:04:47.513Z,549.00
2023-03-22T05:05:37.604Z,548.00
2023-03-22T05:06:27.646Z,548.00
2023-03-22T05:07:17.764Z,549.00
2023-03-22T05:08:07.859Z,540.00
2023-03-22T05:08:57.866Z,541.00
2023-03-22T05:09:47.903Z,554.00
2023-03-22T05:10:38.308Z,547.00
2023-03-22T05:11:27.994Z,541.00
2023-03-22T05:12:17.997Z,541.00
2023-03-22T05:13:08.087Z,553.00
2023-03-22T05:13:58.150Z,544.00
2023-03-22T05:14:48.287Z,546.00
2023-03-22T05:15:38.329Z,543.00
2023-03-22T05:16:28.409Z,556.00
2023-03-22T05:17:18.415Z,550.00
2023-03-22T05:18:08.447Z,550.00
2023-03-22T05:18:58.485Z,556.00
2023-03-22T05:19:48.522Z,559.00
2023-03-22T05:20:39.072Z,548.00
2023-03-22T05:21:28.744Z,548.00
2023-03-22T05:22:18.737Z,546.00
2023-03-22T05:23:08.836Z,545.00
2023-03-22T05:23:58.863Z,546.00
2023-03-22T05:24:48.943Z,542.00
2023-03-22T05:25:38.989Z,542.00
2023-03-22T05:26:29.023Z,542.00
2023-03-22T05:27:19.057Z,545.00
2023-03-22T05:28:09.136Z,552.00
2023-03-22T05:28:59.170Z,549.00
2023-03-22T05:29:49.250Z,541.00
2023-03-22T05:30:39.687Z,539.00
2023-03-22T05:31:29.399Z,539.00
2023-03-22T05:32:19.404Z,540.00
2023-03-22T05:33:09.518Z,543.00
2023-03-22T05:33:59.526Z,545.00
2023-03-22T05:34:49.597Z,549.00
2023-03-22T05:35:39.716Z,557.00
2023-03-22T05:36:29.969Z,564.00
2023-03-22T05:37:19.985Z,565.00
2023-03-22T05:38:10.079Z,567.00
2023-03-22T05:39:00.210Z,566.00
2023-03-22T05:39:50.156Z,568.00
2023-03-22T05:40:40.589Z,575.00
2023-03-22T05:41:30.261Z,578.00
2023-03-22T05:42:20.305Z,572.00
2023-03-22T05:43:10.432Z,584.00
2023-03-22T05:44:00.470Z,573.00
2023-03-22T05:44:50.563Z,575.00
2023-03-22T05:45:40.611Z,585.00
2023-03-22T05:46:30.738Z,581.00
2023-03-22T05:47:20.689Z,579.00
2023-03-22T05:48:10.811Z,588.00
2023-03-22T05:49:00.852Z,587.00
2023-03-22T05:49:50.901Z,578.00
2023-03-22T05:50:41.331Z,590.00
2023-03-22T05:51:30.998Z,583.00
2023-03-22T05:52:21.023Z,589.00
2023-03-22T05:53:11.133Z,588.00
2023-03-22T05:54:01.156Z,593.00
2023-03-22T05:54:51.240Z,586.00
2023-03-22T05:55:41.303Z,582.00
2023-03-22T05:56:31.325Z,576.00
2023-03-22T05:57:21.381Z,572.00
2023-03-22T05:58:11.413Z,587.00
2023-03-22T05:59:01.446Z,582.00
2023-03-22T05:59:51.521Z,577.00
2023-03-22T06:00:41.854Z,579.00
2023-03-22T06:01:31.599Z,583.00
2023-03-22T06:02:21.775Z,580.00
2023-03-22T06:03:11.774Z,584.00
2023-03-22T06:04:01.754Z,585.00
2023-03-22T06:04:51.860Z,586.00
2023-03-22T06:05:41.883Z,584.00
2023-03-22T06:06:31.924Z,578.00
2023-03-22T06:07:21.953Z,587.00
2023-03-22T06:08:12.047Z,590.00
2023-03-22T06:09:15.874Z,580.00
2023-03-22T06:09:53.146Z,577.00
2023-03-22T06:10:42.631Z,580.00
2023-03-22T06:11:32.250Z,582.00
2023-03-22T06:12:22.342Z,584.00
2023-03-22T06:13:12.514Z,581.00
2023-03-22T06:14:02.582Z,586.00
2023-03-22T06:14:52.458Z,589.00
2023-03-22T06:15:42.701Z,583.00
2023-03-22T06:16:32.744Z,590.00
2023-03-22T06:17:22.781Z,590.00
2023-03-22T06:18:12.810Z,586.00
2023-03-22T06:19:02.896Z,584.00
2023-03-22T06:19:53.364Z,592.00
2023-03-22T06:20:43.063Z,590.00
2023-03-22T06:21:33.063Z,583.00
2023-03-22T06:22:23.109Z,590.00
2023-03-22T06:23:13.136Z,590.00
2023-03-22T06:24:03.224Z,587.00
2023-03-22T06:24:53.510Z,593.00
2023-03-22T06:25:43.624Z,590.00
2023-03-22T06:26:33.647Z,591.00
2023-03-22T06:27:23.733Z,596.00
2023-03-22T06:28:13.764Z,587.00
2023-03-22T06:29:03.804Z,590.00
2023-03-22T06:29:53.868Z,586.00
2023-03-22T06:30:44.006Z,587.00
2023-03-22T06:31:33.979Z,596.00
2023-03-22T06:32:24.028Z,589.00
2023-03-22T06:33:14.064Z,585.00
2023-03-22T06:34:04.107Z,590.00
2023-03-22T06:34:54.143Z,584.00
2023-03-22T06:35:44.261Z,587.00
2023-03-22T06:36:34.241Z,590.00
2023-03-22T06:37:24.297Z,591.00
2023-03-22T06:38:14.336Z,587.00
2023-03-22T06:39:04.380Z,586.00
2023-03-22T06:39:54.413Z,590.00
2023-03-22T06:40:44.473Z,591.00
2023-03-22T06:41:34.504Z,582.00
2023-03-22T06:42:24.581Z,585.00
2023-03-22T06:43:14.612Z,590.00
2023-03-22T06:44:04.700Z,589.00
2023-03-22T06:44:54.725Z,582.00
2023-03-22T06:45:44.841Z,592.00
2023-03-22T06:46:34.864Z,593.00
2023-03-22T06:47:25.167Z,595.00
2023-03-22T06:48:15.247Z,592.00
2023-03-22T06:49:05.260Z,595.00
2023-03-22T06:49:55.286Z,595.00
2023-03-22T06:50:45.838Z,599.00
2023-03-22T06:51:35.431Z,594.00
2023-03-22T06:52:25.492Z,597.00
2023-03-22T06:53:15.493Z,594.00
2023-03-22T06:54:05.574Z,585.00
2023-03-22T06:54:55.609Z,591.00
2023-03-22T06:55:45.668Z,591.00
2023-03-22T06:56:35.705Z,589.00
2023-03-22T06:57:25.788Z,595.00
2023-03-22T06:58:15.834Z,594.00
2023-03-22T06:59:05.883Z,593.00
2023-03-22T06:59:55.920Z,588.00
2023-03-22T07:00:45.970Z,591.00
2023-03-22T07:01:36.042Z,591.00
2023-03-22T07:02:26.048Z,593.00
2023-03-22T07:03:16.078Z,584.00
2023-03-22T07:04:06.246Z,589.00
2023-03-22T07:04:56.207Z,588.00
2023-03-22T07:05:46.304Z,589.00
2023-03-22T07:06:36.347Z,588.00
2023-03-22T07:07:26.390Z,591.00
2023-03-22T07:08:16.450Z,593.00
2023-03-22T07:09:06.478Z,591.00
2023-03-22T07:09:56.504Z,582.00
2023-03-22T07:10:46.553Z,584.00
2023-03-22T07:11:36.583Z,588.00
2023-03-22T07:12:26.688Z,595.00
2023-03-22T07:13:16.699Z,579.00
2023-03-22T07:14:06.779Z,589.00
2023-03-22T07:14:56.815Z,580.00
2023-03-22T07:15:46.932Z,575.00
2023-03-22T07:16:36.930Z,592.00
2023-03-22T07:17:27.017Z,584.00
2023-03-22T07:18:17.046Z,583.00
2023-03-22T07:19:07.129Z,585.00
2023-03-22T07:19:57.155Z,581.00
2023-03-22T07:20:47.279Z,576.00
2023-03-22T07:21:37.300Z,580.00
2023-03-22T07:22:27.369Z,582.00
2023-03-22T07:23:17.632Z,571.00
2023-03-22T07:24:07.784Z,577.00
2023-03-22T07:25:00.609Z,571.00
2023-03-22T07:25:47.851Z,571.00
2023-03-22T07:26:37.880Z,571.00
2023-03-22T07:27:27.957Z,567.00
2023-03-22T07:28:18.014Z,571.00
2023-03-22T07:29:08.096Z,565.00
2023-03-22T07:29:58.105Z,574.00
2023-03-22T07:30:48.501Z,572.00
2023-03-22T07:31:38.281Z,570.00
2023-03-22T07:32:28.578Z,570.00
2023-03-22T07:33:18.584Z,565.00
2023-03-22T07:34:08.619Z,565.00
2023-03-22T07:34:58.651Z,562.00
2023-03-22T07:35:48.783Z,564.00
2023-03-22T07:36:38.785Z,561.00
2023-03-22T07:37:28.814Z,566.00
2023-03-22T07:38:18.862Z,566.00
2023-03-22T07:39:08.913Z,568.00
2023-03-22T07:39:58.997Z,572.00
2023-03-22T07:40:49.009Z,577.00
2023-03-22T07:41:39.056Z,571.00
2023-03-22T07:42:29.108Z,561.00
2023-03-22T07:43:19.141Z,570.00
2023-03-22T07:44:17.752Z,575.00
2023-03-22T07:45:00.350Z,569.00
2023-03-22T07:45:49.335Z,574.00
2023-03-22T07:46:39.410Z,569.00
2023-03-22T07:47:40.477Z,572.00
2023-03-22T07:48:22.493Z,565.00
2023-03-22T07:49:09.561Z,573.00
2023-03-22T07:49:59.629Z,567.00
2023-03-22T07:50:49.758Z,567.00
2023-03-22T07:51:39.755Z,574.00
2023-03-22T07:52:29.908Z,564.00
2023-03-22T07:53:19.972Z,569.00
2023-03-22T07:54:10.774Z,569.00
2023-03-22T07:55:00.136Z,575.00
2023-03-22T07:55:50.270Z,566.00
2023-03-22T07:56:40.259Z,569.00
2023-03-22T07:57:30.309Z,563.00
2023-03-22T07:58:20.334Z,564.00
2023-03-22T07:59:10.460Z,555.00
2023-03-22T08:00:00.454Z,563.00
2023-03-22T08:00:50.559Z,570.00
2023-03-22T08:01:40.644Z,564.00
2023-03-22T08:02:30.637Z,567.00
2023-03-22T08:03:20.713Z,571.00
2023-03-22T08:04:10.719Z,563.00
2023-03-22T08:05:00.757Z,564.00
2023-03-22T08:05:50.872Z,564.00
2023-03-22T08:06:40.889Z,562.00
2023-03-22T08:07:30.966Z,558.00
2023-03-22T08:08:20.999Z,562.00
2023-03-22T08:09:11.077Z,552.00
2023-03-22T08:10:01.373Z,555.00
2023-03-22T08:10:51.470Z,552.00
2023-03-22T08:11:41.524Z,551.00
2023-03-22T08:12:31.832Z,547.00
2023-03-22T08:13:21.875Z,548.00
2023-03-22T08:14:11.910Z,541.00
2023-03-22T08:15:01.930Z,552.00
2023-03-22T08:15:51.997Z,550.00
2023-03-22T08:16:42.099Z,557.00
2023-03-22T08:17:32.119Z,555.00
2023-03-22T08:18:22.142Z,554.00
2023-03-22T08:19:12.223Z,545.00
2023-03-22T08:20:02.262Z,548.00
2023-03-22T08:20:52.315Z,546.00
2023-03-22T08:21:42.351Z,560.00
2023-03-22T08:22:32.402Z,549.00
2023-03-22T08:23:31.673Z,548.00
2023-03-22T08:24:12.498Z,541.00
2023-03-22T08:25:02.527Z,549.00
2023-03-22T08:25:52.611Z,550.00
2023-03-22T08:26:42.656Z,546.00
2023-03-22T08:27:32.711Z,546.00
2023-03-22T08:28:22.767Z,550.00
2023-03-22T08:29:12.782Z,540.00
2023-03-22T08:30:02.824Z,545.00
2023-03-22T08:30:52.869Z,542.00
2023-03-22T08:31:42.958Z,532.00
2023-03-22T08:32:32.947Z,539.00
2023-03-22T08:33:23.028Z,535.00
2023-03-22T08:34:13.074Z,537.00
2023-03-22T08:35:03.156Z,533.00
2023-03-22T08:35:53.253Z,542.00
2023-03-22T08:36:43.249Z,527.00
2023-03-22T08:37:33.304Z,537.00
2023-03-22T08:38:23.372Z,545.00
2023-03-22T08:39:13.396Z,541.00
2023-03-22T08:40:03.517Z,534.00
2023-03-22T08:40:53.525Z,539.00
2023-03-22T08:41:43.560Z,541.00
2023-03-22T08:42:33.608Z,542.00
2023-03-22T08:43:23.717Z,536.00
2023-03-22T08:44:13.711Z,544.00
2023-03-22T08:45:03.751Z,534.00
2023-03-22T08:45:53.930Z,536.00
2023-03-22T08:46:43.858Z,529.00
2023-03-22T08:47:33.899Z,543.00
2023-03-22T08:48:24.046Z,541.00
2023-03-22T08:49:14.045Z,534.00
2023-03-22T08:50:04.067Z,543.00
2023-03-22T08:50:54.118Z,543.00
2023-03-22T08:51:44.145Z,526.00
2023-03-22T08:52:34.166Z,533.00
2023-03-22T08:53:24.256Z,536.00
2023-03-22T08:54:14.314Z,536.00
2023-03-22T08:55:04.396Z,531.00
2023-03-22T08:55:54.472Z,534.00
2023-03-22T08:56:44.502Z,535.00
2023-03-22T08:57:35.576Z,539.00
2023-03-22T08:58:24.628Z,535.00
2023-03-22T08:59:14.678Z,538.00
2023-03-22T09:00:04.873Z,539.00
2023-03-22T09:00:54.989Z,543.00
2023-03-22T09:01:45.127Z,538.00
2023-03-22T09:02:35.022Z,542.00
2023-03-22T09:03:25.132Z,548.00
2023-03-22T09:04:15.170Z,533.00
2023-03-22T09:05:05.167Z,534.00
2023-03-22T09:05:55.215Z,536.00
2023-03-22T09:06:45.386Z,523.00
2023-03-22T09:07:35.344Z,532.00
2023-03-22T09:08:25.385Z,532.00
2023-03-22T09:09:15.414Z,529.00
2023-03-22T09:10:05.493Z,530.00
2023-03-22T09:10:55.565Z,535.00
2023-03-22T09:11:45.597Z,538.00
2023-03-22T09:12:35.632Z,540.00
2023-03-22T09:13:25.707Z,543.00
2023-03-22T09:14:15.740Z,540.00
2023-03-22T09:15:05.823Z,548.00
2023-03-22T09:15:55.869Z,547.00
2023-03-22T09:16:45.870Z,543.00
2023-03-22T09:17:35.911Z,544.00
2023-03-22T09:18:25.959Z,541.00
2023-03-22T09:19:15.979Z,533.00
2023-03-22T09:20:12.914Z,548.00
2023-03-22T09:20:57.152Z,548.00
2023-03-22T09:21:46.196Z,548.00
2023-03-22T09:22:36.285Z,549.00
2023-03-22T09:23:26.346Z,543.00
2023-03-22T09:24:16.365Z,540.00
2023-03-22T09:25:06.445Z,543.00
2023-03-22T09:25:56.478Z,540.00
2023-03-22T09:26:46.652Z,534.00
2023-03-22T09:27:36.683Z,525.00
2023-03-22T09:28:26.833Z,538.00
2023-03-22T09:29:16.778Z,520.00
2023-03-22T09:30:06.850Z,521.00
2023-03-22T09:30:56.931Z,522.00
2023-03-22T09:31:46.935Z,531.00
2023-03-22T09:32:36.955Z,528.00
2023-03-22T09:33:27.037Z,527.00
2023-03-22T09:34:17.076Z,527.00
2023-03-22T09:35:07.114Z,532.00
2023-03-22T09:35:57.220Z,537.00
2023-03-22T09:36:47.237Z,543.00
2023-03-22T09:37:37.271Z,546.00
2023-03-22T09:38:27.322Z,547.00
2023-03-22T09:39:17.351Z,550.00
2023-03-22T09:40:07.439Z,559.00
2023-03-22T09:40:57.468Z,553.00
2023-03-22T09:41:47.518Z,544.00
2023-03-22T09:42:37.542Z,537.00
2023-03-22T09:43:27.627Z,532.00
2023-03-22T09:44:17.662Z,545.00
2023-03-22T09:45:07.702Z,545.00
2023-03-22T09:45:57.757Z,547.00
2023-03-22T09:46:47.808Z,544.00
2023-03-22T09:47:45.650Z,541.00
2023-03-22T09:48:28.995Z,541.00
2023-03-22T09:49:17.941Z,542.00
2023-03-22T09:50:07.983Z,536.00
2023-03-22T09:50:58.529Z,535.00
2023-03-22T09:51:48.117Z,534.00
2023-03-22T09:52:38.144Z,537.00
2023-03-22T09:53:28.317Z,546.00
2023-03-22T09:54:18.221Z,548.00
2023-03-22T09:55:08.302Z,547.00
2023-03-22T09:55:58.350Z,534.00
2023-03-22T09:56:48.406Z,538.00
2023-03-22T09:57:38.441Z,539.00
2023-03-22T09:58:28.655Z,536.00
2023-03-22T09:59:18.563Z,536.00
2023-03-22T10:00:08.639Z,537.00
2023-03-22T10:00:58.855Z,537.00
2023-03-22T10:01:48.950Z,538.00
2023-03-22T10:02:38.891Z,536.00
2023-03-22T10:03:28.829Z,536.00
2023-03-22T10:04:19.003Z,538.00
2023-03-22T10:05:08.948Z,542.00
2023-03-22T10:05:59.006Z,551.00
2023-03-22T10:06:49.121Z,547.00
2023-03-22T10:07:39.164Z,548.00
2023-03-22T10:08:29.206Z,551.00
2023-03-22T10:09:19.235Z,538.00
2023-03-22T10:10:09.313Z,544.00
2023-03-22T10:10:59.335Z,548.00
2023-03-22T10:11:49.433Z,541.00
2023-03-22T10:12:39.469Z,537.00
2023-03-22T10:13:29.504Z,531.00
2023-03-22T10:14:19.571Z,534.00
2023-03-22T10:15:09.671Z,545.00
2023-03-22T10:16:00.075Z,541.00
2023-03-22T10:16:49.999Z,547.00
2023-03-22T10:17:40.025Z,549.00
2023-03-22T10:18:30.193Z,549.00
2023-03-22T10:19:20.152Z,545.00
2023-03-22T10:20:10.207Z,542.00
2023-03-22T10:21:00.268Z,547.00
2023-03-22T10:21:50.368Z,533.00
2023-03-22T10:22:40.508Z,533.00
2023-03-22T10:23:30.585Z,536.00
2023-03-22T10:24:20.618Z,548.00